createdAt,value
2023-03-16T00:00:21.514Z,100623.88
2023-03-16T00:03:10.862Z,100624.70
2023-03-16T00:05:38.655Z,100624.91
2023-03-16T00:08:06.369Z,100625.47
2023-03-16T00:10:34.162Z,100630.00
2023-03-16T00:13:02.875Z,100630.45
2023-03-16T00:15:30.648Z,100633.35
2023-03-16T00:17:58.509Z,100637.39
2023-03-16T00:20:27.759Z,100639.11
2023-03-16T00:22:55.719Z,100642.83
2023-03-16T00:25:24.414Z,100641.73
2023-03-16T00:27:52.399Z,100646.48
2023-03-16T00:30:20.175Z,100648.02
2023-03-16T00:32:47.925Z,100653.98
2023-03-16T00:35:18.287Z,100649.55
2023-03-16T00:37:46.163Z,100653.55
2023-03-16T00:40:15.209Z,100658.80
2023-03-16T00:42:43.847Z,100657.78
2023-03-16T00:45:11.979Z,100657.92
2023-03-16T00:47:39.723Z,100658.96
2023-03-16T00:50:07.818Z,100660.91
2023-03-16T00:52:35.727Z,100662.59
2023-03-16T00:55:04.862Z,100655.17
2023-03-16T00:57:32.637Z,100659.10
2023-03-16T01:00:02.328Z,100657.64
2023-03-16T01:02:30.063Z,100660.63
2023-03-16T01:04:58.407Z,100662.58
2023-03-16T01:07:26.661Z,100662.45
2023-03-16T01:09:54.615Z,100669.27
2023-03-16T01:12:22.585Z,100666.70
2023-03-16T01:14:50.295Z,100667.50
2023-03-16T01:17:18.381Z,100672.67
2023-03-16T01:19:46.734Z,100671.19
2023-03-16T01:22:15.466Z,100673.41
2023-03-16T01:24:45.390Z,100671.26
2023-03-16T01:27:13.967Z,100670.48
2023-03-16T01:29:43.876Z,100669.33
2023-03-16T01:32:12.576Z,100670.02
2023-03-16T01:34:40.345Z,100669.80
2023-03-16T01:37:08.698Z,100669.61
2023-03-16T01:39:41.909Z,100673.73
2023-03-16T01:42:10.329Z,100678.52
2023-03-16T01:45:29.604Z,100682.08
2023-03-16T01:47:58.766Z,100682.49
2023-03-16T01:50:27.610Z,100684.54
2023-03-16T01:52:56.221Z,100684.45
2023-03-16T01:55:24.104Z,100684.74
2023-03-16T01:57:51.934Z,100685.09
2023-03-16T02:00:23.740Z,100689.02
2023-03-16T02:03:18.285Z,100689.29
2023-03-16T02:06:04.828Z,100689.29
2023-03-16T02:08:34.062Z,100686.56
2023-03-16T02:11:02.691Z,100690.97
2023-03-16T02:13:43.572Z,100685.95
2023-03-16T02:16:14.645Z,100690.41
2023-03-16T02:18:42.576Z,100691.21
2023-03-16T02:21:33.812Z,100693.80
2023-03-16T02:24:03.881Z,100688.80
2023-03-16T02:26:47.686Z,100692.23
2023-03-16T02:29:57.467Z,100692.92
2023-03-16T02:32:28.083Z,100694.22
2023-03-16T02:34:56.965Z,100701.50
2023-03-16T02:37:26.222Z,100703.23
2023-03-16T02:39:54.272Z,100704.31
2023-03-16T02:42:26.595Z,100711.54
2023-03-16T02:44:59.379Z,100714.90
2023-03-16T02:47:36.108Z,100719.01
2023-03-16T02:50:07.798Z,100718.30
2023-03-16T02:52:37.639Z,100727.20
2023-03-16T02:55:07.767Z,100725.85
2023-03-16T02:57:35.483Z,100725.64
2023-03-16T03:00:17.506Z,100729.17
2023-03-16T03:02:46.393Z,100729.30
2023-03-16T03:05:14.427Z,100731.92
2023-03-16T03:07:42.342Z,100734.61
2023-03-16T03:10:11.130Z,100731.69
2023-03-16T03:12:39.656Z,100730.04
2023-03-16T03:15:09.834Z,100731.63
2023-03-16T03:17:46.647Z,100742.84
2023-03-16T03:20:16.986Z,100743.88
2023-03-16T03:22:47.692Z,100744.98
2023-03-16T03:25:17.282Z,100748.77
2023-03-16T03:27:46.442Z,100750.88
2023-03-16T03:30:21.570Z,100756.29
2023-03-16T03:32:49.368Z,100761.09
2023-03-16T03:35:19.295Z,100759.70
2023-03-16T03:37:47.524Z,100761.93
2023-03-16T03:40:18.602Z,100760.83
2023-03-16T03:42:48.929Z,100764.60
2023-03-16T03:45:17.506Z,100767.19
2023-03-16T03:47:45.470Z,100769.27
2023-03-16T03:50:17.787Z,100772.09
2023-03-16T03:53:00.997Z,100776.45
2023-03-16T03:55:29.812Z,100779.95
2023-03-16T03:57:57.542Z,100780.84
2023-03-16T04:00:25.602Z,100790.39
2023-03-16T04:02:54.014Z,100795.07
2023-03-16T04:05:33.155Z,100795.16
2023-03-16T04:08:00.896Z,100795.56
2023-03-16T04:10:30.424Z,100796.48
2023-03-16T04:13:00.295Z,100797.20
2023-03-16T04:15:32.882Z,100798.65
2023-03-16T04:18:18.047Z,100798.75
2023-03-16T04:20:45.884Z,100802.98
2023-03-16T04:23:17.084Z,100801.83
2023-03-16T04:25:45.577Z,100800.06
2023-03-16T04:28:18.104Z,100801.88
2023-03-16T04:30:46.933Z,100798.95
2023-03-16T04:33:19.170Z,100799.41
2023-03-16T04:35:47.733Z,100801.17
2023-03-16T04:38:15.978Z,100804.17
2023-03-16T04:40:54.202Z,100803.64
2023-03-16T04:43:24.724Z,100807.39
2023-03-16T04:45:55.996Z,100811.19
2023-03-16T04:48:25.760Z,100812.48
2023-03-16T04:50:53.778Z,100819.89
2023-03-16T04:53:21.572Z,100820.88
2023-03-16T04:55:54.002Z,100824.93
2023-03-16T04:58:22.825Z,100829.50
2023-03-16T05:00:55.423Z,100833.27
2023-03-16T05:03:26.751Z,100831.23
2023-03-16T05:05:54.710Z,100830.76
2023-03-16T05:08:22.730Z,100830.17
2023-03-16T05:10:51.252Z,100832.77
2023-03-16T05:13:19.780Z,100833.17
2023-03-16T05:15:48.128Z,100835.58
2023-03-16T05:18:21.661Z,100835.38
2023-03-16T05:20:51.136Z,100838.80
2023-03-16T05:23:19.986Z,100839.96
2023-03-16T05:25:53.498Z,100838.20
2023-03-16T05:28:23.726Z,100842.05
2023-03-16T05:31:12.382Z,100843.45
2023-03-16T05:33:43.110Z,100845.74
2023-03-16T05:36:13.718Z,100849.27
2023-03-16T05:38:42.744Z,100847.55
2023-03-16T05:41:13.920Z,100850.36
2023-03-16T05:43:54.488Z,100847.80
2023-03-16T05:46:22.905Z,100848.02
2023-03-16T05:48:51.207Z,100846.27
2023-03-16T05:51:19.673Z,100851.02
2023-03-16T05:53:49.205Z,100855.17
2023-03-16T05:56:26.283Z,100858.08
2023-03-16T05:58:55.844Z,100860.20
2023-03-16T06:01:24.224Z,100860.45
2023-03-16T06:03:52.421Z,100857.21
2023-03-16T06:06:22.647Z,100855.92
2023-03-16T06:09:10.639Z,100861.04
2023-03-16T06:11:38.759Z,100862.52
2023-03-16T06:14:06.794Z,100861.52
2023-03-16T06:16:34.600Z,100866.59
2023-03-16T06:19:02.446Z,100866.10
2023-03-16T06:21:31.447Z,100864.23
2023-03-16T06:24:04.372Z,100865.70
2023-03-16T06:26:32.565Z,100864.15
2023-03-16T06:29:00.711Z,100865.73
2023-03-16T06:31:28.661Z,100872.71
2023-03-16T06:33:56.990Z,100873.86
2023-03-16T06:36:25.542Z,100872.92
2023-03-16T06:38:55.017Z,100873.90
2023-03-16T06:41:44.192Z,100876.48
2023-03-16T06:44:13.442Z,100878.80
2023-03-16T06:46:47.491Z,100880.77
2023-03-16T06:49:15.217Z,100883.48
2023-03-16T06:51:42.990Z,100882.55
2023-03-16T06:54:11.792Z,100885.73
2023-03-16T06:56:40.698Z,100890.22
2023-03-16T06:59:08.711Z,100892.35
2023-03-16T07:01:37.607Z,100895.85
2023-03-16T07:04:05.441Z,100901.50
2023-03-16T07:06:35.223Z,100903.91
2023-03-16T07:09:05.091Z,100902.16
2023-03-16T07:11:35.338Z,100902.49
2023-03-16T07:14:03.494Z,100907.29
2023-03-16T07:16:34.248Z,100911.73
2023-03-16T07:19:05.220Z,100914.10
2023-03-16T07:21:40.114Z,100914.33
2023-03-16T07:24:12.900Z,100917.33
2023-03-16T07:26:42.321Z,100911.86
2023-03-16T07:29:12.392Z,100913.84
2023-03-16T07:31:40.923Z,100914.55
2023-03-16T07:34:16.730Z,100912.31
2023-03-16T07:36:52.656Z,100913.49
2023-03-16T07:39:21.584Z,100913.94
2023-03-16T07:41:51.778Z,100913.16
2023-03-16T07:44:31.320Z,100912.98
2023-03-16T07:47:00.411Z,100911.02
2023-03-16T07:49:29.149Z,100910.53
2023-03-16T07:52:02.005Z,100915.13
2023-03-16T07:54:38.196Z,100916.39
2023-03-16T07:57:08.291Z,100913.63
2023-03-16T07:59:41.931Z,100920.33
2023-03-16T08:02:17.411Z,100921.04
2023-03-16T08:04:52.496Z,100920.94
2023-03-16T08:07:21.775Z,100914.04
2023-03-16T08:09:53.971Z,100912.84
2023-03-16T08:12:26.802Z,100913.23
2023-03-16T08:14:55.028Z,100920.98
2023-03-16T08:17:28.461Z,100919.67
2023-03-16T08:19:57.778Z,100921.00
2023-03-16T08:22:27.873Z,100918.30
2023-03-16T08:24:56.701Z,100916.36
2023-03-16T08:27:26.312Z,100918.74
2023-03-16T08:30:07.687Z,100909.77
2023-03-16T08:32:42.619Z,100915.09
2023-03-16T08:35:16.522Z,100916.94
2023-03-16T08:37:46.436Z,100913.75
2023-03-16T08:40:17.014Z,100917.82
2023-03-16T08:42:46.831Z,100920.88
2023-03-16T08:45:15.280Z,100919.80
2023-03-16T08:47:44.906Z,100921.85
2023-03-16T08:50:15.477Z,100919.60
2023-03-16T08:52:45.519Z,100921.36
2023-03-16T08:55:15.528Z,100924.78
2023-03-16T08:57:45.661Z,100924.23
2023-03-16T09:00:15.283Z,100926.77
2023-03-16T09:02:45.671Z,100929.23
2023-03-16T09:05:23.346Z,100931.64
2023-03-16T09:08:00.136Z,100929.63
2023-03-16T09:10:30.066Z,100933.08
2023-03-16T09:12:59.654Z,100934.78
2023-03-16T09:15:33.903Z,100932.03
2023-03-16T09:18:04.100Z,100932.23
2023-03-16T09:20:33.261Z,100936.02
2023-03-16T09:23:01.947Z,100938.70
2023-03-16T09:25:30.857Z,100937.77
2023-03-16T09:28:00.951Z,100935.33
2023-03-16T09:30:29.751Z,100938.95
2023-03-16T09:33:04.275Z,100939.37
2023-03-16T09:35:35.949Z,100939.45
2023-03-16T09:38:07.002Z,100940.30
2023-03-16T09:40:38.348Z,100937.66
2023-03-16T09:43:59.630Z,100938.83
2023-03-16T09:46:33.927Z,100936.86
2023-03-16T09:49:04.960Z,100942.40
2023-03-16T09:52:00.525Z,100941.70
2023-03-16T09:54:43.408Z,100938.71
2023-03-16T09:57:35.563Z,100939.97
2023-03-16T10:00:31.685Z,100941.94
2023-03-16T10:03:05.681Z,100944.23
2023-03-16T10:05:37.301Z,100942.43
2023-03-16T10:08:24.588Z,100946.92
2023-03-16T10:11:26.841Z,100944.89
2023-03-16T10:14:30.204Z,100951.39
2023-03-16T10:17:11.707Z,100949.69
2023-03-16T10:19:45.952Z,100943.69
2023-03-16T10:22:26.552Z,100943.80
2023-03-16T10:25:31.114Z,100949.70
2023-03-16T10:27:59.857Z,100950.41
2023-03-16T10:30:30.090Z,100950.63
2023-03-16T10:33:17.348Z,100954.04
2023-03-16T10:35:54.109Z,100949.85
2023-03-16T10:38:33.021Z,100943.16
2023-03-16T10:41:32.076Z,100944.75
2023-03-16T10:44:25.516Z,100942.17
2023-03-16T10:47:06.531Z,100947.66
2023-03-16T10:49:48.857Z,100957.27
2023-03-16T10:52:40.801Z,100959.12
2023-03-16T10:55:19.722Z,100952.48
2023-03-16T10:57:53.684Z,100955.45
2023-03-16T11:00:25.349Z,100950.56
2023-03-16T11:02:55.522Z,100951.17
2023-03-16T11:05:24.873Z,100950.19
2023-03-16T11:08:15.423Z,100950.68
2023-03-16T11:10:56.286Z,100947.77
2023-03-16T11:13:33.869Z,100945.51
2023-03-16T11:16:25.206Z,100953.90
2023-03-16T11:19:03.991Z,100958.93
2023-03-16T11:21:57.182Z,100959.08
2023-03-16T11:24:52.718Z,100955.79
2023-03-16T11:27:27.802Z,100955.14
2023-03-16T11:30:18.015Z,100955.69
2023-03-16T11:32:53.994Z,100949.70
2023-03-16T11:35:58.771Z,100951.30
2023-03-16T11:38:46.249Z,100949.82
2023-03-16T11:41:28.938Z,100953.02
2023-03-16T11:44:07.248Z,100953.86
2023-03-16T11:46:54.356Z,100957.44
2023-03-16T12:15:53.368Z,100958.95
2023-03-16T12:18:27.395Z,100961.29
2023-03-16T12:21:01.622Z,100966.58
2023-03-16T12:23:34.549Z,100974.11
2023-03-16T12:26:03.787Z,100977.09
2023-03-16T12:28:33.545Z,100972.59
2023-03-16T12:31:17.925Z,100974.08
2023-03-16T12:34:21.600Z,100973.56
2023-03-16T12:37:02.868Z,100975.34
2023-03-16T12:39:41.469Z,100972.25
2023-03-16T12:42:29.366Z,100971.31
2023-03-16T12:45:03.676Z,100975.02
2023-03-16T12:47:49.109Z,100973.83
2023-03-16T12:50:19.814Z,100972.41
2023-03-16T12:52:54.135Z,100968.73
2023-03-16T12:55:34.648Z,100964.40
2023-03-16T12:58:08.995Z,100967.83
2023-03-16T13:00:42.784Z,100967.80
2023-03-16T13:03:21.110Z,100973.65
2023-03-16T13:05:55.597Z,100971.25
2023-03-16T13:08:24.586Z,100968.73
2023-03-16T13:11:05.040Z,100966.65
2023-03-16T13:13:34.242Z,100968.30
2023-03-16T13:16:22.313Z,100964.23
2023-03-16T13:18:54.847Z,100964.98
2023-03-16T13:21:26.065Z,100969.13
2023-03-16T13:24:12.223Z,100967.99
2023-03-16T13:26:45.529Z,100967.51
2023-03-16T13:29:25.784Z,100961.13
2023-03-16T13:32:08.710Z,100963.08
2023-03-16T13:34:56.733Z,100962.92
2023-03-16T13:37:28.561Z,100961.61
2023-03-16T13:40:00.023Z,100967.83
2023-03-16T13:42:32.441Z,100968.27
2023-03-16T13:45:13.502Z,100970.75
2023-03-16T13:47:44.333Z,100967.94
2023-03-16T13:50:14.244Z,100966.73
2023-03-16T13:52:56.732Z,100970.52
2023-03-16T13:55:38.395Z,100973.33
2023-03-16T13:58:19.146Z,100973.59
2023-03-16T14:00:47.107Z,100970.41
2023-03-16T14:03:17.820Z,100975.34
2023-03-16T14:05:47.538Z,100973.00
2023-03-16T14:08:26.263Z,100982.83
2023-03-16T14:10:59.224Z,100983.43
2023-03-16T14:13:29.187Z,100984.52
2023-03-16T14:16:01.303Z,100983.95
2023-03-16T14:18:47.512Z,100985.42
2023-03-16T14:21:44.028Z,100980.88
2023-03-16T14:24:33.730Z,100982.48
2023-03-16T14:27:53.347Z,100986.86
2023-03-16T14:30:25.995Z,100988.48
2023-03-16T14:33:05.873Z,100986.79
2023-03-16T14:35:41.774Z,100988.45
2023-03-16T14:38:37.117Z,100991.27
2023-03-16T14:41:13.580Z,100992.17
2023-03-16T14:44:00.147Z,100999.67
2023-03-16T14:46:31.696Z,100996.28
2023-03-16T14:49:10.283Z,100993.90
2023-03-16T14:51:40.725Z,100994.25
2023-03-16T14:54:21.739Z,100995.92
2023-03-16T14:56:55.741Z,100997.40
2023-03-16T14:59:23.481Z,100998.67
2023-03-16T15:01:53.561Z,100995.44
2023-03-16T15:04:28.460Z,101001.47
2023-03-16T15:06:56.320Z,101006.54
2023-03-16T15:09:43.795Z,101008.11
2023-03-16T15:12:15.648Z,101013.08
2023-03-16T15:15:02.613Z,101013.50
2023-03-16T15:17:30.540Z,101011.59
2023-03-16T15:19:58.867Z,101011.08
2023-03-16T15:22:33.711Z,101010.66
2023-03-16T15:25:27.282Z,101012.33
2023-03-16T15:27:55.609Z,101011.38
2023-03-16T15:30:26.432Z,101011.32
2023-03-16T15:32:54.348Z,101016.23
2023-03-16T15:35:22.232Z,101015.45
2023-03-16T15:37:50.095Z,101022.62
2023-03-16T15:40:20.677Z,101024.98
2023-03-16T15:42:48.540Z,101026.71
2023-03-16T15:45:20.587Z,101027.27
2023-03-16T15:47:53.220Z,101032.38
2023-03-16T15:50:24.648Z,101036.24
2023-03-16T15:52:58.203Z,101032.89
2023-03-16T15:55:42.039Z,101033.77
2023-03-16T15:58:32.241Z,101033.45
2023-03-16T16:01:01.752Z,101037.66
2023-03-16T16:03:29.575Z,101036.85
2023-03-16T16:05:57.557Z,101037.22
2023-03-16T16:08:25.662Z,101036.92
2023-03-16T16:10:54.638Z,101041.66
2023-03-16T16:13:37.414Z,101043.04
2023-03-16T16:16:13.999Z,101046.50
2023-03-16T16:18:42.447Z,101047.91
2023-03-16T16:21:22.874Z,101055.04
2023-03-16T16:23:52.905Z,101055.84
2023-03-16T16:26:48.361Z,101065.09
2023-03-16T16:29:23.883Z,101065.63
2023-03-16T16:31:52.366Z,101069.59
2023-03-16T16:34:25.079Z,101073.49
2023-03-16T16:36:57.406Z,101077.00
2023-03-16T16:39:25.563Z,101082.52
2023-03-16T16:41:56.516Z,101084.73
2023-03-16T16:44:27.786Z,101087.70
2023-03-16T16:46:55.851Z,101088.64
2023-03-16T16:49:28.270Z,101089.05
2023-03-16T16:51:57.333Z,101095.00
2023-03-16T16:54:29.194Z,101095.86
2023-03-16T16:56:59.379Z,101104.33
2023-03-16T16:59:32.399Z,101100.17
2023-03-16T17:02:03.235Z,101100.99
2023-03-16T17:04:31.264Z,101099.86
2023-03-16T17:07:02.015Z,101101.00
2023-03-16T17:09:30.630Z,101105.17
2023-03-16T17:12:01.016Z,101111.78
2023-03-16T17:14:31.357Z,101113.27
2023-03-16T17:17:05.226Z,101106.24
2023-03-16T17:19:33.256Z,101109.16
2023-03-16T17:22:17.196Z,101109.77
2023-03-16T17:24:44.970Z,101114.36
2023-03-16T17:27:14.349Z,101120.48
2023-03-16T17:29:42.740Z,101119.90
2023-03-16T17:32:22.708Z,101125.83
2023-03-16T17:34:51.699Z,101126.60
2023-03-16T17:37:22.122Z,101127.98
2023-03-16T17:39:51.976Z,101128.15
2023-03-16T17:42:22.620Z,101129.86
2023-03-16T17:44:52.392Z,101133.00
2023-03-16T17:47:26.351Z,101136.98
2023-03-16T17:49:54.746Z,101142.51
2023-03-16T17:52:25.699Z,101141.42
2023-03-16T17:54:54.047Z,101142.52
2023-03-16T17:57:40.129Z,101141.84
2023-03-16T18:00:30.239Z,101147.39
2023-03-16T18:03:03.883Z,101152.69
2023-03-16T18:05:36.857Z,101153.20
2023-03-16T18:08:15.134Z,101151.36
2023-03-16T18:10:45.537Z,101151.89
2023-03-16T18:13:23.367Z,101152.52
2023-03-16T18:15:52.112Z,101154.42
2023-03-16T18:18:23.055Z,101156.20
2023-03-16T18:20:57.031Z,101158.90
2023-03-16T18:23:28.898Z,101162.84
2023-03-16T18:26:03.962Z,101163.17
2023-03-16T18:28:33.738Z,101165.60
2023-03-16T18:31:03.769Z,101170.97
2023-03-16T18:33:31.614Z,101172.80
2023-03-16T18:36:10.427Z,101175.30
2023-03-16T18:38:42.580Z,101170.83
2023-03-16T18:41:34.364Z,101175.17
2023-03-16T18:44:16.875Z,101176.29
2023-03-16T18:46:46.855Z,101176.05
2023-03-16T18:49:20.815Z,101178.55
2023-03-16T18:51:53.539Z,101179.88
2023-03-16T18:54:28.380Z,101179.33
2023-03-16T18:56:58.865Z,101182.58
2023-03-16T18:59:27.762Z,101180.90
2023-03-16T19:01:56.140Z,101185.13
2023-03-16T19:04:29.493Z,101183.29
2023-03-16T19:06:57.757Z,101186.29
2023-03-16T19:09:28.903Z,101186.31
2023-03-16T19:11:57.800Z,101184.92
2023-03-16T19:14:28.381Z,101191.31
2023-03-16T19:16:56.548Z,101191.63
2023-03-16T19:19:25.367Z,101194.61
2023-03-16T19:21:56.502Z,101196.77
2023-03-16T19:24:33.978Z,101199.91
2023-03-16T19:27:02.173Z,101206.71
2023-03-16T19:29:33.251Z,101207.22
2023-03-16T19:32:01.749Z,101211.45
2023-03-16T19:34:29.625Z,101212.27
2023-03-16T19:36:57.438Z,101212.86
2023-03-16T19:39:25.817Z,101210.63
2023-03-16T19:41:57.628Z,101213.92
2023-03-16T19:44:28.161Z,101218.39
2023-03-16T19:46:56.156Z,101218.11
2023-03-16T19:49:27.052Z,101217.63
2023-03-16T19:51:55.965Z,101218.65
2023-03-16T19:54:34.124Z,101220.72
2023-03-16T19:57:11.135Z,101215.44
2023-03-16T19:59:39.644Z,101217.91
2023-03-16T20:02:37.042Z,101222.63
2023-03-16T20:05:06.735Z,101224.53
2023-03-16T20:07:38.183Z,101225.83
2023-03-16T20:10:06.519Z,101225.70
2023-03-16T20:12:36.979Z,101220.95
2023-03-16T20:15:05.163Z,101223.02
2023-03-16T20:17:33.350Z,101227.95
2023-03-16T20:20:01.193Z,101229.36
2023-03-16T20:22:29.134Z,101231.38
2023-03-16T20:24:57.992Z,101228.07
2023-03-16T20:27:28.005Z,101228.08
2023-03-16T20:29:56.074Z,101228.60
2023-03-16T20:32:27.903Z,101227.36
2023-03-16T20:34:56.450Z,101233.26
2023-03-16T20:37:29.971Z,101230.84
2023-03-16T20:39:59.711Z,101233.19
2023-03-16T20:42:29.879Z,101233.80
2023-03-16T20:44:58.090Z,101236.49
2023-03-16T20:47:28.062Z,101236.35
2023-03-16T20:49:57.492Z,101237.31
2023-03-16T20:52:30.872Z,101239.63
2023-03-16T20:54:59.069Z,101237.04
2023-03-16T20:57:30.662Z,101238.48
2023-03-16T20:59:59.933Z,101239.20
2023-03-16T21:02:28.960Z,101238.96
2023-03-16T21:04:58.965Z,101238.82
2023-03-16T21:07:27.298Z,101239.11
2023-03-16T21:09:55.649Z,101238.41
2023-03-16T21:12:26.811Z,101238.99
2023-03-16T21:14:56.934Z,101241.31
2023-03-16T21:17:38.135Z,101242.13
2023-03-16T21:20:16.928Z,101247.35
2023-03-16T21:22:46.097Z,101249.86
2023-03-16T21:25:30.591Z,101251.36
2023-03-16T21:28:03.258Z,101255.27
2023-03-16T21:30:40.149Z,101255.56
2023-03-16T21:33:39.000Z,101253.30
2023-03-16T21:36:13.237Z,101256.19
2023-03-16T21:38:41.270Z,101254.14
2023-03-16T21:41:09.107Z,101256.66
2023-03-16T21:43:37.489Z,101256.77
2023-03-16T21:46:13.925Z,101257.07
2023-03-16T21:48:42.502Z,101256.20
2023-03-16T21:51:17.087Z,101254.78
2023-03-16T21:53:46.569Z,101257.63
2023-03-16T21:56:20.630Z,101257.52
2023-03-16T21:58:50.066Z,101258.36
2023-03-16T22:01:23.177Z,101259.64
2023-03-16T22:03:53.308Z,101257.57
2023-03-16T22:06:23.380Z,101255.35
2023-03-16T22:08:51.406Z,101254.27
2023-03-16T22:11:22.670Z,101254.77
2023-03-16T22:13:51.722Z,101253.87
2023-03-16T22:16:23.210Z,101254.77
2023-03-16T22:18:56.392Z,101259.73
2023-03-16T22:21:41.995Z,101255.80
2023-03-16T22:24:16.666Z,101257.47
2023-03-16T22:26:44.642Z,101259.17
2023-03-16T22:29:21.121Z,101256.24
2023-03-16T22:31:50.345Z,101256.46
2023-03-16T22:34:42.062Z,101255.16
2023-03-16T22:37:13.765Z,101257.24
2023-03-16T22:39:41.554Z,101255.97
2023-03-16T22:42:37.263Z,101257.78
2023-03-16T22:45:23.053Z,101257.80
2023-03-16T22:47:51.639Z,101255.99
2023-03-16T22:50:20.628Z,101257.71
2023-03-16T22:52:53.765Z,101255.22
2023-03-16T22:55:25.811Z,101257.71
2023-03-16T22:58:02.657Z,101257.83
2023-03-16T23:00:31.439Z,101257.83
2023-03-16T23:02:59.369Z,101261.16
2023-03-16T23:06:59.843Z,101265.00
2023-03-16T23:09:28.878Z,101270.31
2023-03-16T23:11:58.008Z,101270.88
2023-03-16T23:14:29.540Z,101272.65
2023-03-16T23:16:57.360Z,101271.06
2023-03-16T23:19:26.500Z,101273.83
2023-03-16T23:21:57.438Z,101273.31
2023-03-16T23:24:25.716Z,101275.35
2023-03-16T23:26:54.528Z,101275.81
2023-03-16T23:29:23.578Z,101281.83
2023-03-16T23:31:51.454Z,101285.98
2023-03-16T23:34:21.374Z,101281.77
2023-03-16T23:36:49.961Z,101283.18
2023-03-16T23:39:17.848Z,101289.64
2023-03-16T23:41:48.127Z,101290.79
2023-03-16T23:44:22.373Z,101291.93
2023-03-16T23:46:50.970Z,101294.81
2023-03-16T23:49:25.566Z,101297.05
2023-03-16T23:51:54.464Z,101297.08
2023-03-16T23:54:25.808Z,101299.88
2023-03-16T23:56:53.966Z,101300.94
2023-03-16T23:59:23.514Z,101303.04
